sensor_id;sensor_type;location;lat;lon;timestamp;P1;durP1;ratioP1;P2;durP2;ratioP2
15536;SDS011;7870;52.448;13.270;2023-08-17T00:00:23;3.55;;;1.60;;
15536;SDS011;7870;52.448;13.270;2023-08-17T00:02:50;3.30;;;1.70;;
15536;SDS011;7870;52.448;13.270;2023-08-17T00:05:16;3.15;;;1.73;;
15536;SDS011;7870;52.448;13.270;2023-08-17T00:07:43;3.03;;;1.52;;
15536;SDS011;7870;52.448;13.270;2023-08-17T00:10:09;3.72;;;1.58;;
15536;SDS011;7870;52.448;13.270;2023-08-17T00:12:36;3.05;;;1.42;;
15536;SDS011;7870;52.448;13.270;2023-08-17T00:15:03;2.42;;;1.25;;
15536;SDS011;7870;52.448;13.270;2023-08-17T00:17:29;2.90;;;1.60;;
15536;SDS011;7870;52.448;13.270;2023-08-17T00:19:56;2.08;;;1.20;;
15536;SDS011;7870;52.448;13.270;2023-08-17T00:22:23;1.83;;;1.10;;
15536;SDS011;7870;52.448;13.270;2023-08-17T00:24:49;2.10;;;1.00;;
15536;SDS011;7870;52.448;13.270;2023-08-17T00:27:16;3.33;;;1.60;;
15536;SDS011;7870;52.448;13.270;2023-08-17T00:29:42;3.60;;;1.75;;
15536;SDS011;7870;52.448;13.270;2023-08-17T00:32:09;2.55;;;1.48;;
15536;SDS011;7870;52.448;13.270;2023-08-17T00:34:36;1.80;;;0.93;;
15536;SDS011;7870;52.448;13.270;2023-08-17T00:37:02;2.13;;;1.40;;
15536;SDS011;7870;52.448;13.270;2023-08-17T00:39:29;2.13;;;1.13;;
15536;SDS011;7870;52.448;13.270;2023-08-17T00:41:55;3.92;;;1.50;;
15536;SDS011;7870;52.448;13.270;2023-08-17T00:44:22;3.10;;;1.75;;
15536;SDS011;7870;52.448;13.270;2023-08-17T00:46:49;3.38;;;1.60;;
15536;SDS011;7870;52.448;13.270;2023-08-17T00:49:15;3.45;;;1.70;;
15536;SDS011;7870;52.448;13.270;2023-08-17T00:51:42;4.15;;;2.05;;
15536;SDS011;7870;52.448;13.270;2023-08-17T00:54:09;6.78;;;1.88;;
15536;SDS011;7870;52.448;13.270;2023-08-17T00:56:36;2.92;;;1.42;;
15536;SDS011;7870;52.448;13.270;2023-08-17T00:59:04;3.35;;;1.50;;
15536;SDS011;7870;52.448;13.270;2023-08-17T01:01:31;2.45;;;1.23;;
15536;SDS011;7870;52.448;13.270;2023-08-17T01:03:58;3.85;;;1.95;;
15536;SDS011;7870;52.448;13.270;2023-08-17T01:06:25;2.65;;;1.58;;
15536;SDS011;7870;52.448;13.270;2023-08-17T01:08:51;4.45;;;1.88;;
15536;SDS011;7870;52.448;13.270;2023-08-17T01:13:58;3.83;;;1.77;;
15536;SDS011;7870;52.448;13.270;2023-08-17T01:16:38;4.28;;;2.20;;
15536;SDS011;7870;52.448;13.270;2023-08-17T01:19:08;4.80;;;2.20;;
15536;SDS011;7870;52.448;13.270;2023-08-17T01:21:44;3.65;;;1.48;;
15536;SDS011;7870;52.448;13.270;2023-08-17T01:24:16;5.05;;;1.90;;
15536;SDS011;7870;52.448;13.270;2023-08-17T01:26:42;3.22;;;1.73;;
15536;SDS011;7870;52.448;13.270;2023-08-17T01:29:09;3.25;;;1.60;;
15536;SDS011;7870;52.448;13.270;2023-08-17T01:31:36;4.18;;;1.90;;
15536;SDS011;7870;52.448;13.270;2023-08-17T01:34:14;4.00;;;1.90;;
15536;SDS011;7870;52.448;13.270;2023-08-17T01:39:17;4.25;;;1.73;;
15536;SDS011;7870;52.448;13.270;2023-08-17T01:41:44;2.95;;;1.40;;
15536;SDS011;7870;52.448;13.270;2023-08-17T01:44:13;4.18;;;2.08;;
15536;SDS011;7870;52.448;13.270;2023-08-17T01:46:39;3.75;;;1.65;;
15536;SDS011;7870;52.448;13.270;2023-08-17T01:49:08;5.00;;;2.22;;
15536;SDS011;7870;52.448;13.270;2023-08-17T01:51:34;2.92;;;1.60;;
15536;SDS011;7870;52.448;13.270;2023-08-17T01:54:01;2.95;;;1.50;;
15536;SDS011;7870;52.448;13.270;2023-08-17T01:56:28;2.88;;;1.55;;
15536;SDS011;7870;52.448;13.270;2023-08-17T01:58:54;2.92;;;1.67;;
15536;SDS011;7870;52.448;13.270;2023-08-17T02:01:21;3.75;;;1.60;;
15536;SDS011;7870;52.448;13.270;2023-08-17T02:03:48;4.10;;;2.00;;
15536;SDS011;7870;52.448;13.270;2023-08-17T02:06:15;4.57;;;2.30;;
15536;SDS011;7870;52.448;13.270;2023-08-17T02:08:41;3.72;;;1.60;;
15536;SDS011;7870;52.448;13.270;2023-08-17T02:11:08;4.53;;;1.63;;
15536;SDS011;7870;52.448;13.270;2023-08-17T02:13:37;4.18;;;1.90;;
15536;SDS011;7870;52.448;13.270;2023-08-17T02:16:04;3.40;;;1.52;;
15536;SDS011;7870;52.448;13.270;2023-08-17T02:18:31;3.88;;;1.90;;
15536;SDS011;7870;52.448;13.270;2023-08-17T02:20:59;7.15;;;2.03;;
15536;SDS011;7870;52.448;13.270;2023-08-17T02:23:26;3.28;;;1.88;;
15536;SDS011;7870;52.448;13.270;2023-08-17T02:25:52;3.30;;;1.70;;
15536;SDS011;7870;52.448;13.270;2023-08-17T02:28:20;3.95;;;1.83;;
15536;SDS011;7870;52.448;13.270;2023-08-17T02:30:47;3.55;;;2.10;;
15536;SDS011;7870;52.448;13.270;2023-08-17T02:33:15;2.72;;;1.60;;
15536;SDS011;7870;52.448;13.270;2023-08-17T02:35:41;4.15;;;2.00;;
15536;SDS011;7870;52.448;13.270;2023-08-17T02:38:08;4.18;;;2.30;;
15536;SDS011;7870;52.448;13.270;2023-08-17T02:40:35;2.92;;;1.58;;
15536;SDS011;7870;52.448;13.270;2023-08-17T02:43:01;3.63;;;1.52;;
15536;SDS011;7870;52.448;13.270;2023-08-17T02:45:28;2.78;;;1.60;;
15536;SDS011;7870;52.448;13.270;2023-08-17T02:47:56;3.72;;;1.63;;
15536;SDS011;7870;52.448;13.270;2023-08-17T02:50:23;4.03;;;2.00;;
15536;SDS011;7870;52.448;13.270;2023-08-17T02:52:49;5.90;;;2.47;;
15536;SDS011;7870;52.448;13.270;2023-08-17T02:55:16;4.10;;;2.00;;
15536;SDS011;7870;52.448;13.270;2023-08-17T02:57:42;4.50;;;1.73;;
15536;SDS011;7870;52.448;13.270;2023-08-17T03:00:09;3.50;;;1.95;;
15536;SDS011;7870;52.448;13.270;2023-08-17T03:02:36;4.13;;;1.98;;
15536;SDS011;7870;52.448;13.270;2023-08-17T03:05:03;3.38;;;2.15;;
15536;SDS011;7870;52.448;13.270;2023-08-17T03:07:29;4.75;;;2.00;;
15536;SDS011;7870;52.448;13.270;2023-08-17T03:09:56;4.53;;;2.22;;
15536;SDS011;7870;52.448;13.270;2023-08-17T03:12:22;3.25;;;1.60;;
15536;SDS011;7870;52.448;13.270;2023-08-17T03:14:49;4.78;;;2.45;;
15536;SDS011;7870;52.448;13.270;2023-08-17T03:17:15;4.10;;;1.60;;
15536;SDS011;7870;52.448;13.270;2023-08-17T03:19:42;2.42;;;1.35;;
15536;SDS011;7870;52.448;13.270;2023-08-17T03:22:08;3.35;;;1.80;;
15536;SDS011;7870;52.448;13.270;2023-08-17T03:24:35;4.13;;;2.22;;
15536;SDS011;7870;52.448;13.270;2023-08-17T03:27:02;5.72;;;1.70;;
15536;SDS011;7870;52.448;13.270;2023-08-17T03:29:29;4.88;;;2.05;;
15536;SDS011;7870;52.448;13.270;2023-08-17T03:31:55;4.40;;;1.90;;
15536;SDS011;7870;52.448;13.270;2023-08-17T03:34:23;3.38;;;1.65;;
15536;SDS011;7870;52.448;13.270;2023-08-17T03:36:49;4.13;;;1.83;;
15536;SDS011;7870;52.448;13.270;2023-08-17T03:39:16;5.03;;;1.80;;
15536;SDS011;7870;52.448;13.270;2023-08-17T03:41:43;4.43;;;2.10;;
15536;SDS011;7870;52.448;13.270;2023-08-17T03:44:09;3.50;;;1.77;;
15536;SDS011;7870;52.448;13.270;2023-08-17T03:46:36;6.20;;;1.85;;
15536;SDS011;7870;52.448;13.270;2023-08-17T03:49:03;3.67;;;1.80;;
15536;SDS011;7870;52.448;13.270;2023-08-17T03:51:30;3.85;;;2.00;;
15536;SDS011;7870;52.448;13.270;2023-08-17T03:53:56;3.25;;;1.70;;
15536;SDS011;7870;52.448;13.270;2023-08-17T03:56:23;3.75;;;1.50;;
15536;SDS011;7870;52.448;13.270;2023-08-17T03:58:50;4.10;;;2.10;;
15536;SDS011;7870;52.448;13.270;2023-08-17T04:01:16;4.45;;;1.98;;
15536;SDS011;7870;52.448;13.270;2023-08-17T04:03:43;3.53;;;1.83;;
15536;SDS011;7870;52.448;13.270;2023-08-17T04:06:09;5.15;;;1.70;;
15536;SDS011;7870;52.448;13.270;2023-08-17T04:08:37;4.50;;;1.75;;
15536;SDS011;7870;52.448;13.270;2023-08-17T04:11:04;2.80;;;1.63;;
15536;SDS011;7870;52.448;13.270;2023-08-17T04:13:31;2.97;;;1.90;;
15536;SDS011;7870;52.448;13.270;2023-08-17T04:15:58;5.40;;;1.90;;
15536;SDS011;7870;52.448;13.270;2023-08-17T04:18:24;3.53;;;1.77;;
15536;SDS011;7870;52.448;13.270;2023-08-17T04:20:51;3.17;;;1.90;;
15536;SDS011;7870;52.448;13.270;2023-08-17T04:23:20;4.63;;;1.50;;
15536;SDS011;7870;52.448;13.270;2023-08-17T04:25:47;7.70;;;2.17;;
15536;SDS011;7870;52.448;13.270;2023-08-17T04:28:14;2.58;;;1.50;;
15536;SDS011;7870;52.448;13.270;2023-08-17T04:30:42;2.72;;;1.40;;
15536;SDS011;7870;52.448;13.270;2023-08-17T04:33:09;3.85;;;1.60;;
15536;SDS011;7870;52.448;13.270;2023-08-17T04:35:36;3.42;;;1.80;;
15536;SDS011;7870;52.448;13.270;2023-08-17T04:38:02;3.13;;;1.33;;
15536;SDS011;7870;52.448;13.270;2023-08-17T04:40:29;4.03;;;1.85;;
15536;SDS011;7870;52.448;13.270;2023-08-17T04:42:57;3.13;;;1.38;;
15536;SDS011;7870;52.448;13.270;2023-08-17T04:45:25;3.03;;;1.40;;
15536;SDS011;7870;52.448;13.270;2023-08-17T04:47:52;2.55;;;1.35;;
15536;SDS011;7870;52.448;13.270;2023-08-17T04:50:18;3.90;;;1.90;;
15536;SDS011;7870;52.448;13.270;2023-08-17T04:52:45;2.83;;;1.40;;
15536;SDS011;7870;52.448;13.270;2023-08-17T04:55:13;1.88;;;1.10;;
15536;SDS011;7870;52.448;13.270;2023-08-17T04:57:41;2.35;;;1.38;;
15536;SDS011;7870;52.448;13.270;2023-08-17T05:00:10;3.63;;;1.42;;
15536;SDS011;7870;52.448;13.270;2023-08-17T05:02:37;2.95;;;1.50;;
15536;SDS011;7870;52.448;13.270;2023-08-17T05:05:04;3.28;;;1.75;;
15536;SDS011;7870;52.448;13.270;2023-08-17T05:07:31;5.43;;;1.70;;
15536;SDS011;7870;52.448;13.270;2023-08-17T05:09:58;3.95;;;1.80;;
15536;SDS011;7870;52.448;13.270;2023-08-17T05:12:24;2.85;;;1.73;;
15536;SDS011;7870;52.448;13.270;2023-08-17T05:14:51;2.78;;;1.60;;
15536;SDS011;7870;52.448;13.270;2023-08-17T05:17:18;3.10;;;1.63;;
15536;SDS011;7870;52.448;13.270;2023-08-17T05:19:44;3.88;;;1.90;;
15536;SDS011;7870;52.448;13.270;2023-08-17T05:22:12;3.40;;;1.60;;
15536;SDS011;7870;52.448;13.270;2023-08-17T05:24:39;2.22;;;1.30;;
15536;SDS011;7870;52.448;13.270;2023-08-17T05:27:06;4.13;;;1.90;;
15536;SDS011;7870;52.448;13.270;2023-08-17T05:29:33;2.50;;;1.40;;
15536;SDS011;7870;52.448;13.270;2023-08-17T05:31:59;1.80;;;0.93;;
15536;SDS011;7870;52.448;13.270;2023-08-17T05:34:26;2.03;;;1.00;;
15536;SDS011;7870;52.448;13.270;2023-08-17T05:36:54;1.40;;;0.70;;
15536;SDS011;7870;52.448;13.270;2023-08-17T05:39:20;1.98;;;0.93;;
15536;SDS011;7870;52.448;13.270;2023-08-17T05:41:47;2.53;;;1.15;;
15536;SDS011;7870;52.448;13.270;2023-08-17T05:44:14;2.65;;;1.40;;
15536;SDS011;7870;52.448;13.270;2023-08-17T05:46:41;5.60;;;1.65;;
15536;SDS011;7870;52.448;13.270;2023-08-17T05:49:08;4.57;;;1.35;;
15536;SDS011;7870;52.448;13.270;2023-08-17T05:51:34;2.38;;;1.10;;
15536;SDS011;7870;52.448;13.270;2023-08-17T05:54:01;1.95;;;1.25;;
15536;SDS011;7870;52.448;13.270;2023-08-17T05:56:27;2.20;;;1.25;;
15536;SDS011;7870;52.448;13.270;2023-08-17T05:58:54;2.00;;;1.23;;
15536;SDS011;7870;52.448;13.270;2023-08-17T06:01:21;2.30;;;1.02;;
15536;SDS011;7870;52.448;13.270;2023-08-17T06:03:48;2.10;;;1.02;;
15536;SDS011;7870;52.448;13.270;2023-08-17T06:06:16;1.98;;;1.00;;
15536;SDS011;7870;52.448;13.270;2023-08-17T06:08:42;1.63;;;0.95;;
15536;SDS011;7870;52.448;13.270;2023-08-17T06:11:09;1.77;;;1.20;;
15536;SDS011;7870;52.448;13.270;2023-08-17T06:13:35;2.88;;;1.35;;
15536;SDS011;7870;52.448;13.270;2023-08-17T06:16:02;2.88;;;1.30;;
15536;SDS011;7870;52.448;13.270;2023-08-17T06:18:29;2.10;;;1.10;;
15536;SDS011;7870;52.448;13.270;2023-08-17T06:20:56;1.75;;;0.85;;
15536;SDS011;7870;52.448;13.270;2023-08-17T06:23:23;3.25;;;1.25;;
15536;SDS011;7870;52.448;13.270;2023-08-17T06:25:50;2.08;;;1.00;;
15536;SDS011;7870;52.448;13.270;2023-08-17T06:28:17;1.30;;;0.80;;
15536;SDS011;7870;52.448;13.270;2023-08-17T06:30:43;2.05;;;1.00;;
15536;SDS011;7870;52.448;13.270;2023-08-17T06:33:10;1.35;;;0.77;;
15536;SDS011;7870;52.448;13.270;2023-08-17T06:35:36;2.38;;;1.00;;
15536;SDS011;7870;52.448;13.270;2023-08-17T06:38:03;2.08;;;0.80;;
15536;SDS011;7870;52.448;13.270;2023-08-17T06:40:29;1.77;;;0.75;;
15536;SDS011;7870;52.448;13.270;2023-08-17T06:42:56;1.25;;;0.80;;
15536;SDS011;7870;52.448;13.270;2023-08-17T06:45:23;2.55;;;1.30;;
15536;SDS011;7870;52.448;13.270;2023-08-17T06:47:49;3.58;;;1.40;;
15536;SDS011;7870;52.448;13.270;2023-08-17T06:50:16;3.05;;;1.67;;
15536;SDS011;7870;52.448;13.270;2023-08-17T06:52:42;3.90;;;2.05;;
15536;SDS011;7870;52.448;13.270;2023-08-17T06:55:09;2.78;;;1.80;;
15536;SDS011;7870;52.448;13.270;2023-08-17T06:57:38;3.22;;;1.73;;
15536;SDS011;7870;52.448;13.270;2023-08-17T07:00:05;3.10;;;1.50;;
15536;SDS011;7870;52.448;13.270;2023-08-17T07:02:33;2.30;;;1.33;;
15536;SDS011;7870;52.448;13.270;2023-08-17T07:05:17;4.82;;;2.38;;
15536;SDS011;7870;52.448;13.270;2023-08-17T07:07:47;3.97;;;1.90;;
15536;SDS011;7870;52.448;13.270;2023-08-17T07:10:14;3.28;;;1.60;;
15536;SDS011;7870;52.448;13.270;2023-08-17T07:12:41;9.55;;;5.10;;
15536;SDS011;7870;52.448;13.270;2023-08-17T07:15:07;6.70;;;3.05;;
15536;SDS011;7870;52.448;13.270;2023-08-17T07:17:34;5.43;;;3.30;;
15536;SDS011;7870;52.448;13.270;2023-08-17T07:20:00;5.82;;;2.58;;
15536;SDS011;7870;52.448;13.270;2023-08-17T07:22:30;3.15;;;1.90;;
15536;SDS011;7870;52.448;13.270;2023-08-17T07:24:57;3.80;;;2.00;;
15536;SDS011;7870;52.448;13.270;2023-08-17T07:27:23;2.47;;;1.60;;
15536;SDS011;7870;52.448;13.270;2023-08-17T07:29:50;6.28;;;2.75;;
15536;SDS011;7870;52.448;13.270;2023-08-17T07:32:17;4.20;;;2.45;;
15536;SDS011;7870;52.448;13.270;2023-08-17T07:34:44;5.72;;;2.80;;
15536;SDS011;7870;52.448;13.270;2023-08-17T07:37:11;3.95;;;2.33;;
15536;SDS011;7870;52.448;13.270;2023-08-17T07:39:41;2.87;;;1.73;;
15536;SDS011;7870;52.448;13.270;2023-08-17T07:42:07;3.92;;;2.08;;
15536;SDS011;7870;52.448;13.270;2023-08-17T07:44:34;3.47;;;1.92;;
15536;SDS011;7870;52.448;13.270;2023-08-17T07:47:01;3.83;;;2.20;;
15536;SDS011;7870;52.448;13.270;2023-08-17T07:49:28;3.17;;;2.05;;
15536;SDS011;7870;52.448;13.270;2023-08-17T07:51:58;4.03;;;2.83;;
15536;SDS011;7870;52.448;13.270;2023-08-17T07:54:25;3.15;;;2.28;;
15536;SDS011;7870;52.448;13.270;2023-08-17T07:56:52;8.45;;;2.83;;
15536;SDS011;7870;52.448;13.270;2023-08-17T07:59:18;9.20;;;2.92;;
15536;SDS011;7870;52.448;13.270;2023-08-17T08:01:45;4.47;;;2.60;;
15536;SDS011;7870;52.448;13.270;2023-08-17T08:04:11;4.53;;;3.05;;
15536;SDS011;7870;52.448;13.270;2023-08-17T08:06:38;5.22;;;3.08;;
15536;SDS011;7870;52.448;13.270;2023-08-17T08:09:05;3.50;;;2.40;;
15536;SDS011;7870;52.448;13.270;2023-08-17T08:11:33;4.30;;;2.97;;
15536;SDS011;7870;52.448;13.270;2023-08-17T08:14:00;4.72;;;3.22;;
15536;SDS011;7870;52.448;13.270;2023-08-17T08:16:27;4.68;;;2.80;;
15536;SDS011;7870;52.448;13.270;2023-08-17T08:18:56;4.28;;;3.15;;
15536;SDS011;7870;52.448;13.270;2023-08-17T08:21:22;4.22;;;2.90;;
15536;SDS011;7870;52.448;13.270;2023-08-17T08:23:49;5.38;;;3.55;;
15536;SDS011;7870;52.448;13.270;2023-08-17T08:26:15;4.88;;;2.80;;
15536;SDS011;7870;52.448;13.270;2023-08-17T08:28:42;6.18;;;3.10;;
15536;SDS011;7870;52.448;13.270;2023-08-17T08:31:08;3.80;;;2.50;;
15536;SDS011;7870;52.448;13.270;2023-08-17T08:33:35;3.53;;;2.05;;
15536;SDS011;7870;52.448;13.270;2023-08-17T08:36:02;4.72;;;2.60;;
15536;SDS011;7870;52.448;13.270;2023-08-17T08:38:28;6.50;;;2.80;;
15536;SDS011;7870;52.448;13.270;2023-08-17T08:40:55;4.30;;;2.70;;
15536;SDS011;7870;52.448;13.270;2023-08-17T08:43:22;4.55;;;2.80;;
15536;SDS011;7870;52.448;13.270;2023-08-17T08:45:49;4.90;;;2.40;;
15536;SDS011;7870;52.448;13.270;2023-08-17T08:48:17;4.03;;;2.45;;
15536;SDS011;7870;52.448;13.270;2023-08-17T08:50:44;4.38;;;2.38;;
15536;SDS011;7870;52.448;13.270;2023-08-17T08:53:15;3.45;;;2.38;;
15536;SDS011;7870;52.448;13.270;2023-08-17T08:55:45;2.90;;;2.28;;
15536;SDS011;7870;52.448;13.270;2023-08-17T08:58:15;6.50;;;2.95;;
15536;SDS011;7870;52.448;13.270;2023-08-17T09:00:42;3.80;;;2.65;;
15536;SDS011;7870;52.448;13.270;2023-08-17T09:03:08;4.05;;;2.78;;
15536;SDS011;7870;52.448;13.270;2023-08-17T09:05:36;5.68;;;2.50;;
15536;SDS011;7870;52.448;13.270;2023-08-17T09:08:03;3.33;;;2.33;;
15536;SDS011;7870;52.448;13.270;2023-08-17T09:10:30;3.08;;;2.15;;
15536;SDS011;7870;52.448;13.270;2023-08-17T09:13:03;4.43;;;2.40;;
15536;SDS011;7870;52.448;13.270;2023-08-17T09:15:30;4.47;;;2.28;;
15536;SDS011;7870;52.448;13.270;2023-08-17T09:17:56;5.05;;;2.88;;
15536;SDS011;7870;52.448;13.270;2023-08-17T09:20:37;3.65;;;2.25;;
15536;SDS011;7870;52.448;13.270;2023-08-17T09:23:09;3.95;;;2.40;;
15536;SDS011;7870;52.448;13.270;2023-08-17T09:25:40;3.58;;;2.72;;
15536;SDS011;7870;52.448;13.270;2023-08-17T09:28:08;4.88;;;2.30;;
15536;SDS011;7870;52.448;13.270;2023-08-17T09:33:25;4.47;;;2.20;;
15536;SDS011;7870;52.448;13.270;2023-08-17T09:35:53;3.60;;;2.22;;
15536;SDS011;7870;52.448;13.270;2023-08-17T09:38:25;2.70;;;1.80;;
15536;SDS011;7870;52.448;13.270;2023-08-17T09:40:52;3.50;;;2.25;;
15536;SDS011;7870;52.448;13.270;2023-08-17T09:43:20;3.20;;;2.20;;
15536;SDS011;7870;52.448;13.270;2023-08-17T09:45:47;2.90;;;2.13;;
15536;SDS011;7870;52.448;13.270;2023-08-17T09:48:18;3.08;;;2.28;;
15536;SDS011;7870;52.448;13.270;2023-08-17T09:50:46;4.43;;;2.38;;
15536;SDS011;7870;52.448;13.270;2023-08-17T09:53:14;5.57;;;3.35;;
15536;SDS011;7870;52.448;13.270;2023-08-17T09:55:42;2.78;;;2.30;;
15536;SDS011;7870;52.448;13.270;2023-08-17T09:58:09;4.18;;;2.53;;
15536;SDS011;7870;52.448;13.270;2023-08-17T10:00:36;5.45;;;2.92;;
15536;SDS011;7870;52.448;13.270;2023-08-17T10:03:04;3.95;;;2.72;;
15536;SDS011;7870;52.448;13.270;2023-08-17T10:05:35;3.58;;;2.72;;
15536;SDS011;7870;52.448;13.270;2023-08-17T10:08:04;3.65;;;2.65;;
15536;SDS011;7870;52.448;13.270;2023-08-17T10:10:34;2.85;;;1.98;;
15536;SDS011;7870;52.448;13.270;2023-08-17T10:13:11;3.38;;;2.30;;
15536;SDS011;7870;52.448;13.270;2023-08-17T10:18:31;2.78;;;2.03;;
15536;SDS011;7870;52.448;13.270;2023-08-17T10:24:18;4.35;;;3.00;;
15536;SDS011;7870;52.448;13.270;2023-08-17T10:26:45;3.30;;;2.55;;
15536;SDS011;7870;52.448;13.270;2023-08-17T10:29:12;5.30;;;3.00;;
15536;SDS011;7870;52.448;13.270;2023-08-17T10:31:45;5.05;;;2.83;;
15536;SDS011;7870;52.448;13.270;2023-08-17T10:34:13;5.00;;;3.58;;
15536;SDS011;7870;52.448;13.270;2023-08-17T10:36:40;5.40;;;3.15;;
15536;SDS011;7870;52.448;13.270;2023-08-17T10:39:26;4.15;;;2.20;;
15536;SDS011;7870;52.448;13.270;2023-08-17T10:41:55;4.95;;;3.03;;
15536;SDS011;7870;52.448;13.270;2023-08-17T10:47:18;3.20;;;2.38;;
15536;SDS011;7870;52.448;13.270;2023-08-17T10:49:45;3.05;;;2.15;;
15536;SDS011;7870;52.448;13.270;2023-08-17T10:52:11;3.20;;;2.00;;
15536;SDS011;7870;52.448;13.270;2023-08-17T10:54:38;3.53;;;2.10;;
15536;SDS011;7870;52.448;13.270;2023-08-17T10:57:25;4.22;;;2.47;;
15536;SDS011;7870;52.448;13.270;2023-08-17T11:00:14;2.35;;;1.70;;
15536;SDS011;7870;52.448;13.270;2023-08-17T11:05:43;5.55;;;2.90;;
15536;SDS011;7870;52.448;13.270;2023-08-17T11:08:11;3.63;;;1.80;;
15536;SDS011;7870;52.448;13.270;2023-08-17T11:13:33;4.13;;;2.20;;
15536;SDS011;7870;52.448;13.270;2023-08-17T11:16:01;3.13;;;2.05;;
15536;SDS011;7870;52.448;13.270;2023-08-17T11:18:30;4.30;;;2.42;;
15536;SDS011;7870;52.448;13.270;2023-08-17T11:20:57;4.30;;;2.50;;
15536;SDS011;7870;52.448;13.270;2023-08-17T11:23:23;3.03;;;2.22;;
15536;SDS011;7870;52.448;13.270;2023-08-17T11:25:54;3.85;;;2.22;;
15536;SDS011;7870;52.448;13.270;2023-08-17T11:28:21;4.35;;;2.42;;
15536;SDS011;7870;52.448;13.270;2023-08-17T11:30:58;3.42;;;2.25;;
15536;SDS011;7870;52.448;13.270;2023-08-17T11:33:29;3.88;;;2.03;;
15536;SDS011;7870;52.448;13.270;2023-08-17T11:35:57;2.60;;;1.80;;
15536;SDS011;7870;52.448;13.270;2023-08-17T11:38:31;3.10;;;2.05;;
15536;SDS011;7870;52.448;13.270;2023-08-17T11:40:59;2.80;;;1.80;;
15536;SDS011;7870;52.448;13.270;2023-08-17T11:43:27;5.90;;;2.60;;
15536;SDS011;7870;52.448;13.270;2023-08-17T11:45:56;4.15;;;2.28;;
15536;SDS011;7870;52.448;13.270;2023-08-17T11:48:23;3.50;;;2.30;;
15536;SDS011;7870;52.448;13.270;2023-08-17T11:50:50;3.80;;;2.55;;
15536;SDS011;7870;52.448;13.270;2023-08-17T11:53:17;2.70;;;1.88;;
15536;SDS011;7870;52.448;13.270;2023-08-17T11:55:44;2.92;;;1.92;;
15536;SDS011;7870;52.448;13.270;2023-08-17T11:58:12;4.45;;;2.15;;
15536;SDS011;7870;52.448;13.270;2023-08-17T12:00:42;2.50;;;1.70;;
15536;SDS011;7870;52.448;13.270;2023-08-17T12:03:14;3.40;;;2.40;;
15536;SDS011;7870;52.448;13.270;2023-08-17T12:05:43;3.17;;;2.15;;
15536;SDS011;7870;52.448;13.270;2023-08-17T12:08:12;2.80;;;1.90;;
15536;SDS011;7870;52.448;13.270;2023-08-17T12:10:39;2.75;;;1.73;;
15536;SDS011;7870;52.448;13.270;2023-08-17T12:13:30;3.70;;;2.22;;
15536;SDS011;7870;52.448;13.270;2023-08-17T12:16:00;3.38;;;2.20;;
15536;SDS011;7870;52.448;13.270;2023-08-17T12:18:27;3.00;;;1.80;;
15536;SDS011;7870;52.448;13.270;2023-08-17T12:20:53;2.80;;;1.98;;
15536;SDS011;7870;52.448;13.270;2023-08-17T12:23:20;4.22;;;2.40;;
15536;SDS011;7870;52.448;13.270;2023-08-17T12:25:51;3.97;;;2.20;;
15536;SDS011;7870;52.448;13.270;2023-08-17T12:28:19;3.65;;;2.45;;
15536;SDS011;7870;52.448;13.270;2023-08-17T12:30:45;4.35;;;2.58;;
15536;SDS011;7870;52.448;13.270;2023-08-17T12:33:12;4.43;;;2.47;;
15536;SDS011;7870;52.448;13.270;2023-08-17T12:35:38;3.35;;;2.30;;
15536;SDS011;7870;52.448;13.270;2023-08-17T12:38:05;3.38;;;2.60;;
15536;SDS011;7870;52.448;13.270;2023-08-17T12:40:33;3.67;;;2.60;;
15536;SDS011;7870;52.448;13.270;2023-08-17T12:43:00;4.05;;;2.47;;
15536;SDS011;7870;52.448;13.270;2023-08-17T12:45:26;3.90;;;2.67;;
15536;SDS011;7870;52.448;13.270;2023-08-17T12:47:53;3.63;;;2.42;;
15536;SDS011;7870;52.448;13.270;2023-08-17T12:50:20;2.90;;;2.10;;
15536;SDS011;7870;52.448;13.270;2023-08-17T12:52:47;2.75;;;2.05;;
15536;SDS011;7870;52.448;13.270;2023-08-17T12:55:13;3.00;;;1.95;;
15536;SDS011;7870;52.448;13.270;2023-08-17T12:57:40;7.32;;;3.20;;
15536;SDS011;7870;52.448;13.270;2023-08-17T13:00:07;9.48;;;4.35;;
15536;SDS011;7870;52.448;13.270;2023-08-17T13:02:35;5.03;;;2.80;;
15536;SDS011;7870;52.448;13.270;2023-08-17T13:05:02;4.22;;;3.10;;
15536;SDS011;7870;52.448;13.270;2023-08-17T13:07:28;3.35;;;2.60;;
15536;SDS011;7870;52.448;13.270;2023-08-17T13:09:55;3.60;;;2.75;;
15536;SDS011;7870;52.448;13.270;2023-08-17T13:12:22;5.65;;;3.08;;
15536;SDS011;7870;52.448;13.270;2023-08-17T13:14:48;3.90;;;2.65;;
15536;SDS011;7870;52.448;13.270;2023-08-17T13:17:15;4.80;;;2.92;;
15536;SDS011;7870;52.448;13.270;2023-08-17T13:19:43;3.20;;;2.33;;
15536;SDS011;7870;52.448;13.270;2023-08-17T13:22:09;6.03;;;3.10;;
15536;SDS011;7870;52.448;13.270;2023-08-17T13:24:36;3.78;;;3.00;;
15536;SDS011;7870;52.448;13.270;2023-08-17T13:27:04;4.25;;;3.13;;
15536;SDS011;7870;52.448;13.270;2023-08-17T13:29:31;4.95;;;3.00;;
15536;SDS011;7870;52.448;13.270;2023-08-17T13:31:57;4.05;;;3.10;;
15536;SDS011;7870;52.448;13.270;2023-08-17T13:34:24;3.20;;;2.45;;
15536;SDS011;7870;52.448;13.270;2023-08-17T13:36:51;3.90;;;2.50;;
15536;SDS011;7870;52.448;13.270;2023-08-17T13:39:17;4.53;;;2.53;;
15536;SDS011;7870;52.448;13.270;2023-08-17T13:41:44;3.50;;;2.63;;
15536;SDS011;7870;52.448;13.270;2023-08-17T13:44:10;3.50;;;2.47;;
15536;SDS011;7870;52.448;13.270;2023-08-17T13:46:37;3.35;;;2.60;;
15536;SDS011;7870;52.448;13.270;2023-08-17T13:49:04;3.55;;;2.72;;
15536;SDS011;7870;52.448;13.270;2023-08-17T13:51:31;3.35;;;2.55;;
15536;SDS011;7870;52.448;13.270;2023-08-17T13:53:57;3.40;;;2.50;;
15536;SDS011;7870;52.448;13.270;2023-08-17T13:56:24;2.97;;;2.38;;
15536;SDS011;7870;52.448;13.270;2023-08-17T13:58:54;4.45;;;2.72;;
15536;SDS011;7870;52.448;13.270;2023-08-17T14:01:20;4.13;;;3.13;;
15536;SDS011;7870;52.448;13.270;2023-08-17T14:03:47;5.38;;;3.17;;
15536;SDS011;7870;52.448;13.270;2023-08-17T14:06:14;3.13;;;2.70;;
15536;SDS011;7870;52.448;13.270;2023-08-17T14:08:41;3.85;;;2.90;;
15536;SDS011;7870;52.448;13.270;2023-08-17T14:11:08;3.20;;;2.90;;
15536;SDS011;7870;52.448;13.270;2023-08-17T14:13:34;4.00;;;3.17;;
15536;SDS011;7870;52.448;13.270;2023-08-17T14:16:02;3.15;;;2.53;;
15536;SDS011;7870;52.448;13.270;2023-08-17T14:18:29;2.70;;;2.40;;
15536;SDS011;7870;52.448;13.270;2023-08-17T14:20:56;2.90;;;2.22;;
15536;SDS011;7870;52.448;13.270;2023-08-17T14:23:22;4.13;;;2.95;;
15536;SDS011;7870;52.448;13.270;2023-08-17T14:25:49;3.78;;;3.20;;
15536;SDS011;7870;52.448;13.270;2023-08-17T14:28:18;3.55;;;2.80;;
15536;SDS011;7870;52.448;13.270;2023-08-17T14:30:45;3.10;;;2.50;;
15536;SDS011;7870;52.448;13.270;2023-08-17T14:33:18;5.18;;;3.33;;
15536;SDS011;7870;52.448;13.270;2023-08-17T14:35:44;3.65;;;3.22;;
15536;SDS011;7870;52.448;13.270;2023-08-17T14:38:11;3.58;;;3.28;;
15536;SDS011;7870;52.448;13.270;2023-08-17T14:40:43;3.17;;;2.70;;
15536;SDS011;7870;52.448;13.270;2023-08-17T14:45:40;4.07;;;3.00;;
15536;SDS011;7870;52.448;13.270;2023-08-17T14:48:07;4.10;;;3.60;;
15536;SDS011;7870;52.448;13.270;2023-08-17T14:50:34;4.38;;;3.72;;
15536;SDS011;7870;52.448;13.270;2023-08-17T14:53:01;3.67;;;3.28;;
15536;SDS011;7870;52.448;13.270;2023-08-17T14:55:34;3.20;;;2.90;;
15536;SDS011;7870;52.448;13.270;2023-08-17T14:58:00;3.85;;;3.08;;
15536;SDS011;7870;52.448;13.270;2023-08-17T15:00:29;3.65;;;3.22;;
15536;SDS011;7870;52.448;13.270;2023-08-17T15:02:59;4.00;;;3.08;;
15536;SDS011;7870;52.448;13.270;2023-08-17T15:05:26;3.53;;;3.22;;
15536;SDS011;7870;52.448;13.270;2023-08-17T15:07:54;3.35;;;2.80;;
15536;SDS011;7870;52.448;13.270;2023-08-17T15:10:21;3.83;;;3.40;;
15536;SDS011;7870;52.448;13.270;2023-08-17T15:12:48;3.25;;;2.90;;
15536;SDS011;7870;52.448;13.270;2023-08-17T15:15:15;3.35;;;2.88;;